createdAt,value
2022-11-10T00:02:36.456Z,479.65217
2022-11-10T00:07:38.085Z,470.49573
2022-11-10T00:12:40.108Z,470.49573
2022-11-10T00:17:42.196Z,484.35088
2022-11-10T00:22:43.906Z,461.64706
2022-11-10T00:27:45.666Z,466.0339
2022-11-10T00:32:47.412Z,440.77419
2022-11-10T00:37:49.108Z,444.81301
2022-11-10T00:42:51.115Z,444.81301
2022-11-10T00:47:52.938Z,432.88889
2022-11-10T00:52:54.717Z,421.51938
2022-11-10T00:57:56.398Z,368.82759
2022-11-10T01:02:58.043Z,380.87943
2022-11-10T01:07:59.757Z,390.37681
2022-11-10T01:13:01.466Z,377.80282
2022-11-10T01:18:03.112Z,384
2022-11-10T01:23:04.705Z,396.94118
2022-11-10T01:28:06.641Z,407.15789
2022-11-10T01:33:08.390Z,400.2963
2022-11-10T01:38:10.253Z,396.94118
2022-11-10T01:43:12.456Z,400.2963
2022-11-10T01:48:14.301Z,365.91781
2022-11-10T01:53:16.150Z,407.15789
2022-11-10T01:58:18.000Z,400.2963
2022-11-10T02:03:20.240Z,390.37681
2022-11-10T02:08:22.254Z,387.16547
2022-11-10T02:13:24.309Z,400.2963
2022-11-10T02:18:26.081Z,396.94118
2022-11-10T02:23:27.688Z,384
2022-11-10T02:28:29.353Z,400.2963
2022-11-10T02:33:30.979Z,393.63504
2022-11-10T02:38:32.853Z,377.80282
2022-11-10T02:43:34.522Z,331.42138
2022-11-10T02:48:36.239Z,380.87943
2022-11-10T02:53:37.859Z,380.87943
2022-11-10T02:58:39.620Z,396.94118
2022-11-10T03:03:41.343Z,384
2022-11-10T03:08:43.001Z,380.87943
2022-11-10T03:13:58.968Z,384
2022-11-10T03:19:02.477Z,363.04762
2022-11-10T03:24:04.094Z,377.80282
2022-11-10T03:29:05.839Z,396.94118
2022-11-10T03:34:07.498Z,387.16547
2022-11-10T03:39:09.157Z,390.37681
2022-11-10T03:44:10.844Z,400.2963
2022-11-10T03:49:12.579Z,390.37681
2022-11-10T03:54:14.309Z,371.77778
2022-11-10T03:59:16.037Z,377.80282
2022-11-10T04:04:17.804Z,384
2022-11-10T04:09:19.617Z,377.80282
2022-11-10T04:14:21.282Z,384
2022-11-10T04:19:22.925Z,374.76923
2022-11-10T04:24:24.773Z,387.16547
2022-11-10T04:29:26.660Z,403.70149
2022-11-10T04:34:28.425Z,403.70149
2022-11-10T04:39:30.180Z,403.70149
2022-11-10T04:44:31.769Z,403.70149
2022-11-10T04:49:33.426Z,400.2963
2022-11-10T04:54:35.055Z,414.22901
2022-11-10T04:59:36.703Z,400.2963
2022-11-10T05:04:38.328Z,410.66667
2022-11-10T05:09:39.974Z,403.70149
2022-11-10T05:14:41.717Z,396.94118
2022-11-10T05:19:43.455Z,407.15789
2022-11-10T05:24:45.130Z,390.37681
2022-11-10T05:29:46.726Z,393.63504
2022-11-10T05:34:48.345Z,387.16547
2022-11-10T05:39:50.037Z,384
2022-11-10T05:44:51.860Z,377.80282
2022-11-10T05:49:53.776Z,363.04762
2022-11-10T05:54:55.596Z,354.66667
2022-11-10T05:59:57.225Z,351.94702
2022-11-10T06:04:58.855Z,357.42282
2022-11-10T06:10:00.551Z,377.80282
2022-11-10T06:15:02.276Z,368.82759
2022-11-10T06:20:04.025Z,387.16547
2022-11-10T06:25:06.123Z,390.37681
2022-11-10T06:30:07.833Z,387.16547
2022-11-10T06:35:09.677Z,384
2022-11-10T06:40:11.384Z,390.37681
2022-11-10T06:45:13.050Z,393.63504
2022-11-10T06:50:14.747Z,380.87943
2022-11-10T06:55:16.390Z,354.66667
2022-11-10T07:00:18.214Z,344
2022-11-10T07:05:19.908Z,377.80282
2022-11-10T07:10:21.720Z,410.66667
2022-11-10T07:15:23.459Z,403.70149
2022-11-10T07:20:25.116Z,407.15789
2022-11-10T07:25:26.753Z,371.77778
2022-11-10T07:30:28.542Z,374.76923
2022-11-10T07:35:30.200Z,368.82759
2022-11-10T07:40:31.847Z,371.77778
2022-11-10T07:45:33.731Z,387.16547
2022-11-10T07:50:35.538Z,387.16547
2022-11-10T07:55:37.468Z,384
2022-11-10T08:00:39.333Z,407.15789
2022-11-10T08:05:41.140Z,380.87943
2022-11-10T08:10:42.937Z,387.16547
2022-11-10T08:15:44.618Z,417.84615
2022-11-10T08:20:46.228Z,432.88889
2022-11-10T08:25:47.974Z,421.51938
2022-11-10T08:30:49.763Z,432.88889
2022-11-10T08:35:51.434Z,417.84615
2022-11-10T08:40:53.162Z,414.22901
2022-11-10T08:45:54.966Z,417.84615
2022-11-10T08:50:56.666Z,429.03937
2022-11-10T08:55:58.285Z,421.51938
2022-11-10T09:01:00.702Z,429.03937
2022-11-10T09:06:02.480Z,410.66667
2022-11-10T09:11:04.311Z,410.66667
2022-11-10T09:16:06.134Z,417.84615
2022-11-10T09:21:07.826Z,417.84615
2022-11-10T09:26:09.456Z,410.66667
2022-11-10T09:31:11.076Z,414.22901
2022-11-10T09:36:12.790Z,421.51938
2022-11-10T09:41:14.468Z,429.03937
2022-11-10T09:46:16.078Z,417.84615
2022-11-10T09:51:17.769Z,417.84615
2022-11-10T09:56:19.541Z,417.84615
2022-11-10T10:01:21.255Z,432.88889
2022-11-10T10:06:22.920Z,425.25
2022-11-10T10:11:24.688Z,425.25
2022-11-10T10:16:26.627Z,429.03937
2022-11-10T10:21:28.385Z,440.77419
2022-11-10T10:26:30.113Z,448.91803
2022-11-10T10:31:31.766Z,457.33333
2022-11-10T10:36:33.478Z,436.8
2022-11-10T10:41:35.347Z,444.81301
2022-11-10T10:46:37.042Z,448.91803
2022-11-10T10:51:38.650Z,448.91803
2022-11-10T10:56:40.304Z,436.8
2022-11-10T11:01:42.032Z,453.09091
2022-11-10T11:06:43.754Z,466.0339
2022-11-10T11:11:45.693Z,453.09091
2022-11-10T11:16:47.311Z,479.65217
2022-11-10T11:21:48.947Z,475.03448
2022-11-10T11:26:50.580Z,475.03448
2022-11-10T11:31:52.455Z,489.13274
2022-11-10T11:36:54.142Z,466.0339
2022-11-10T11:41:55.877Z,466.0339
2022-11-10T11:46:57.503Z,457.33333
2022-11-10T11:51:59.126Z,448.91803
2022-11-10T11:57:00.795Z,461.64706
2022-11-10T12:02:02.533Z,444.81301
2022-11-10T12:07:04.319Z,448.91803
2022-11-10T12:12:06.069Z,466.0339
2022-11-10T12:17:07.701Z,461.64706
2022-11-10T12:22:09.314Z,470.49573
2022-11-10T12:27:11.077Z,466.0339
2022-11-10T12:32:12.748Z,494
2022-11-10T12:37:14.425Z,489.13274
2022-11-10T12:42:16.260Z,475.03448
2022-11-10T12:47:17.886Z,489.13274
2022-11-10T12:52:19.511Z,504
2022-11-10T12:57:21.197Z,489.13274
2022-11-10T13:02:22.795Z,484.35088
2022-11-10T13:07:24.539Z,475.03448
2022-11-10T13:12:26.208Z,498.95495
2022-11-10T13:17:27.788Z,484.35088
2022-11-10T13:22:29.421Z,489.13274
2022-11-10T13:27:31.169Z,489.13274
2022-11-10T13:32:32.824Z,475.03448
2022-11-10T13:37:34.475Z,498.95495
2022-11-10T13:42:36.201Z,504
2022-11-10T13:47:37.860Z,509.13761
2022-11-10T13:52:39.544Z,484.35088
2022-11-10T13:57:41.622Z,509.13761
2022-11-10T14:02:43.307Z,504
2022-11-10T14:07:44.950Z,494
2022-11-10T14:12:46.645Z,498.95495
2022-11-10T14:17:48.245Z,489.13274
2022-11-10T14:22:50.512Z,509.13761
2022-11-10T14:27:57.662Z,494
2022-11-10T14:32:59.950Z,504
2022-11-10T14:38:01.663Z,494
2022-11-10T14:43:03.332Z,470.49573
2022-11-10T14:48:05.019Z,489.13274
2022-11-10T14:53:06.700Z,461.64706
2022-11-10T14:58:08.345Z,461.64706
2022-11-10T15:03:10.154Z,479.65217
2022-11-10T15:08:11.794Z,457.33333
2022-11-10T15:13:13.411Z,453.09091
2022-11-10T15:18:15.201Z,448.91803
2022-11-10T15:23:16.820Z,461.64706
2022-11-10T15:28:18.492Z,479.65217
2022-11-10T15:33:20.254Z,494
2022-11-10T15:38:22.369Z,498.95495
2022-11-10T15:43:24.579Z,498.95495
2022-11-10T15:48:26.757Z,494
2022-11-10T15:53:28.436Z,494
2022-11-10T15:58:30.076Z,530.66667
2022-11-10T16:03:31.760Z,489.13274
2022-11-10T16:08:33.473Z,498.95495
2022-11-10T16:13:35.177Z,479.65217
2022-11-10T16:18:42.591Z,504
2022-11-10T16:23:45.446Z,484.35088
2022-11-10T16:28:47.241Z,519.70093
2022-11-10T16:33:49.006Z,514.37037
2022-11-10T16:38:50.818Z,514.37037
2022-11-10T16:43:53.478Z,514.37037
2022-11-10T16:48:55.154Z,519.70093
2022-11-10T16:53:56.871Z,542.05825
2022-11-10T16:58:58.587Z,514.37037
2022-11-10T17:04:00.506Z,536.30769
2022-11-10T17:09:02.190Z,542.05825
2022-11-10T17:14:03.891Z,525.13208
2022-11-10T17:19:05.530Z,504
2022-11-10T17:24:07.111Z,525.13208
2022-11-10T17:29:08.719Z,494
2022-11-10T17:34:10.348Z,504
2022-11-10T17:39:12.141Z,504
2022-11-10T17:44:13.774Z,489.13274
2022-11-10T17:49:15.418Z,498.95495
2022-11-10T17:54:17.107Z,484.35088
2022-11-10T17:59:18.767Z,479.65217
2022-11-10T18:04:20.486Z,461.64706
2022-11-10T18:09:22.132Z,461.64706
2022-11-10T18:14:23.953Z,461.64706
2022-11-10T18:19:25.637Z,489.13274
2022-11-10T18:24:27.387Z,484.35088
2022-11-10T18:29:29.011Z,484.35088
2022-11-10T18:34:30.657Z,479.65217
2022-11-10T18:39:32.300Z,484.35088
2022-11-10T18:44:34.308Z,479.65217
2022-11-10T18:49:36.260Z,475.03448
2022-11-10T18:54:38.221Z,457.33333
2022-11-10T18:59:39.984Z,484.35088
2022-11-10T19:04:41.967Z,484.35088
2022-11-10T19:09:43.704Z,448.91803
2022-11-10T19:14:45.349Z,453.09091
2022-11-10T19:19:49.876Z,475.03448
2022-11-10T19:25:08.063Z,444.81301
2022-11-10T19:30:10.506Z,475.03448
2022-11-10T19:35:12.194Z,470.49573
2022-11-10T19:40:13.944Z,475.03448
2022-11-10T19:45:15.599Z,440.77419
2022-11-10T19:50:17.235Z,461.64706
2022-11-10T19:55:18.966Z,453.09091
2022-11-10T20:00:20.613Z,440.77419
2022-11-10T20:05:22.315Z,440.77419
2022-11-10T20:10:23.921Z,448.91803
2022-11-10T20:15:25.863Z,457.33333
2022-11-10T20:20:27.478Z,440.77419
2022-11-10T20:25:29.153Z,440.77419
2022-11-10T20:30:30.772Z,440.77419
2022-11-10T20:35:32.431Z,479.65217
2022-11-10T20:40:44.061Z,457.33333
2022-11-10T20:45:46.928Z,470.49573
2022-11-10T20:50:48.633Z,421.51938
2022-11-10T20:55:54.024Z,470.49573
2022-11-10T21:00:55.974Z,470.49573
2022-11-10T21:05:57.621Z,461.64706
2022-11-10T21:10:59.357Z,436.8
2022-11-10T21:16:01.039Z,484.35088
2022-11-10T21:21:02.641Z,453.09091
2022-11-10T21:26:04.233Z,484.35088
2022-11-10T21:31:05.842Z,461.64706
2022-11-10T21:36:07.487Z,498.95495
2022-11-10T21:41:09.117Z,479.65217
2022-11-10T21:46:10.737Z,484.35088
2022-11-10T21:51:12.405Z,444.81301
2022-11-10T21:56:14.059Z,448.91803
2022-11-10T22:01:15.772Z,466.0339
2022-11-10T22:06:17.722Z,475.03448
2022-11-10T22:11:19.342Z,466.0339
2022-11-10T22:16:20.994Z,453.09091
2022-11-10T22:21:22.675Z,448.91803
2022-11-10T22:26:24.564Z,484.35088
2022-11-10T22:31:26.256Z,494
2022-11-10T22:36:28.066Z,514.37037
2022-11-10T22:41:29.789Z,479.65217
2022-11-10T22:46:31.389Z,504
2022-11-10T22:51:33.025Z,509.13761
2022-11-10T22:56:34.724Z,504
2022-11-10T23:01:36.427Z,498.95495
2022-11-10T23:06:38.121Z,504
2022-11-10T23:11:39.916Z,484.35088
2022-11-10T23:16:41.580Z,498.95495
2022-11-10T23:21:43.214Z,504
2022-11-10T23:26:44.967Z,374.76923
2022-11-10T23:31:47.014Z,479.65217
2022-11-10T23:36:48.720Z,484.35088
2022-11-10T23:41:50.457Z,377.80282
2022-11-10T23:46:52.208Z,338.87179
2022-11-10T23:51:53.851Z,444.81301
2022-11-10T23:56:55.847Z,338.87179
